sensor_id;sensor_type;location;lat;lon;timestamp;pressure;altitude;pressure_sealevel;temperature;humidity
11223;BME280;5668;52.012;8.724;2023-07-08T00:00:16;100528.44;;;22.20;55.95
11223;BME280;5668;52.012;8.724;2023-07-08T00:02:44;100528.09;;;22.23;55.82
11223;BME280;5668;52.012;8.724;2023-07-08T00:05:14;100525.28;;;22.25;55.66
11223;BME280;5668;52.012;8.724;2023-07-08T00:07:43;100522.81;;;22.23;56.18
11223;BME280;5668;52.012;8.724;2023-07-08T00:10:14;100515.88;;;22.22;56.27
11223;BME280;5668;52.012;8.724;2023-07-08T00:12:43;100513.38;;;22.21;56.40
11223;BME280;5668;52.012;8.724;2023-07-08T00:15:12;100514.03;;;22.23;56.37
11223;BME280;5668;52.012;8.724;2023-07-08T00:17:39;100521.16;;;22.22;57.05
11223;BME280;5668;52.012;8.724;2023-07-08T00:20:13;100514.75;;;22.17;56.74
11223;BME280;5668;52.012;8.724;2023-07-08T00:22:42;100521.88;;;22.16;57.12
11223;BME280;5668;52.012;8.724;2023-07-08T00:25:13;100521.66;;;22.18;57.17
11223;BME280;5668;52.012;8.724;2023-07-08T00:27:40;100516.84;;;22.21;57.26
11223;BME280;5668;52.012;8.724;2023-07-08T00:30:30;100525.63;;;22.22;57.07
11223;BME280;5668;52.012;8.724;2023-07-08T00:32:58;100516.84;;;22.21;57.67
11223;BME280;5668;52.012;8.724;2023-07-08T00:35:29;100521.97;;;22.23;57.72
11223;BME280;5668;52.012;8.724;2023-07-08T00:37:57;100514.22;;;22.21;58.05
11223;BME280;5668;52.012;8.724;2023-07-08T00:40:28;100513.03;;;22.47;57.09
11223;BME280;5668;52.012;8.724;2023-07-08T00:42:56;100512.03;;;22.25;58.15
11223;BME280;5668;52.012;8.724;2023-07-08T00:45:37;100517.75;;;22.14;58.92
11223;BME280;5668;52.012;8.724;2023-07-08T00:48:15;100506.22;;;22.07;59.12
11223;BME280;5668;52.012;8.724;2023-07-08T00:50:45;100504.28;;;22.00;59.06
11223;BME280;5668;52.012;8.724;2023-07-08T00:53:26;100503.94;;;21.95;58.74
11223;BME280;5668;52.012;8.724;2023-07-08T00:55:57;100507.78;;;21.93;58.84
11223;BME280;5668;52.012;8.724;2023-07-08T00:58:29;100501.00;;;21.90;59.64
11223;BME280;5668;52.012;8.724;2023-07-08T01:01:00;100508.94;;;21.90;59.70
11223;BME280;5668;52.012;8.724;2023-07-08T01:03:29;100505.69;;;21.80;59.87
11223;BME280;5668;52.012;8.724;2023-07-08T01:05:58;100506.06;;;21.77;59.70
11223;BME280;5668;52.012;8.724;2023-07-08T01:08:27;100502.91;;;21.74;59.60
11223;BME280;5668;52.012;8.724;2023-07-08T01:10:59;100502.91;;;21.74;60.02
11223;BME280;5668;52.012;8.724;2023-07-08T01:13:29;100491.88;;;21.70;59.85
11223;BME280;5668;52.012;8.724;2023-07-08T01:16:00;100498.16;;;21.69;60.09
11223;BME280;5668;52.012;8.724;2023-07-08T01:18:27;100494.84;;;21.67;59.77
11223;BME280;5668;52.012;8.724;2023-07-08T01:20:55;100492.38;;;21.66;59.98
11223;BME280;5668;52.012;8.724;2023-07-08T01:23:24;100495.22;;;21.64;60.13
11223;BME280;5668;52.012;8.724;2023-07-08T01:25:52;100493.56;;;21.63;59.98
11223;BME280;5668;52.012;8.724;2023-07-08T01:28:19;100492.91;;;21.61;59.93
11223;BME280;5668;52.012;8.724;2023-07-08T01:30:48;100490.59;;;21.58;59.88
11223;BME280;5668;52.012;8.724;2023-07-08T01:33:19;100494.28;;;21.57;60.03
11223;BME280;5668;52.012;8.724;2023-07-08T01:35:48;100485.69;;;21.55;60.21
11223;BME280;5668;52.012;8.724;2023-07-08T01:38:18;100496.25;;;21.55;60.46
11223;BME280;5668;52.012;8.724;2023-07-08T01:40:52;100492.94;;;21.53;60.15
11223;BME280;5668;52.012;8.724;2023-07-08T01:43:19;100491.31;;;21.52;60.02
11223;BME280;5668;52.012;8.724;2023-07-08T01:45:48;100483.91;;;21.47;60.05
11223;BME280;5668;52.012;8.724;2023-07-08T01:48:18;100487.88;;;21.43;60.62
11223;BME280;5668;52.012;8.724;2023-07-08T01:50:49;100485.44;;;21.42;60.40
11223;BME280;5668;52.012;8.724;2023-07-08T01:53:20;100483.94;;;21.39;60.76
11223;BME280;5668;52.012;8.724;2023-07-08T01:55:49;100485.75;;;21.39;60.63
11223;BME280;5668;52.012;8.724;2023-07-08T01:58:16;100482.81;;;21.34;60.64
11223;BME280;5668;52.012;8.724;2023-07-08T02:00:44;100481.50;;;21.30;60.79
11223;BME280;5668;52.012;8.724;2023-07-08T02:03:14;100481.84;;;21.27;60.79
11223;BME280;5668;52.012;8.724;2023-07-08T02:05:41;100479.72;;;21.22;60.85
11223;BME280;5668;52.012;8.724;2023-07-08T02:08:08;100472.97;;;21.19;60.98
11223;BME280;5668;52.012;8.724;2023-07-08T02:10:37;100468.50;;;21.20;60.71
11223;BME280;5668;52.012;8.724;2023-07-08T02:13:06;100470.66;;;21.16;61.02
11223;BME280;5668;52.012;8.724;2023-07-08T02:15:34;100474.94;;;21.17;60.71
11223;BME280;5668;52.012;8.724;2023-07-08T02:18:01;100467.63;;;21.28;60.32
11223;BME280;5668;52.012;8.724;2023-07-08T02:20:28;100468.66;;;21.18;60.57
11223;BME280;5668;52.012;8.724;2023-07-08T02:22:55;100470.66;;;21.16;60.58
11223;BME280;5668;52.012;8.724;2023-07-08T02:25:23;100465.38;;;21.16;60.94
11223;BME280;5668;52.012;8.724;2023-07-08T02:27:50;100456.75;;;21.14;61.03
11223;BME280;5668;52.012;8.724;2023-07-08T02:30:18;100454.09;;;21.14;61.10
11223;BME280;5668;52.012;8.724;2023-07-08T02:32:46;100465.66;;;21.13;61.10
11223;BME280;5668;52.012;8.724;2023-07-08T02:35:23;100456.13;;;21.12;61.08
11223;BME280;5668;52.012;8.724;2023-07-08T02:37:51;100465.19;;;21.10;60.99
11223;BME280;5668;52.012;8.724;2023-07-08T02:40:19;100454.63;;;21.10;60.70
11223;BME280;5668;52.012;8.724;2023-07-08T02:42:47;100461.72;;;21.09;61.01
11223;BME280;5668;52.012;8.724;2023-07-08T02:45:18;100461.06;;;21.07;60.87
11223;BME280;5668;52.012;8.724;2023-07-08T02:47:48;100465.53;;;21.07;60.75
11223;BME280;5668;52.012;8.724;2023-07-08T02:50:17;100466.72;;;21.04;60.87
11223;BME280;5668;52.012;8.724;2023-07-08T02:52:48;100454.31;;;21.44;59.29
11223;BME280;5668;52.012;8.724;2023-07-08T02:55:15;100454.47;;;21.19;60.04
11223;BME280;5668;52.012;8.724;2023-07-08T02:57:42;100453.81;;;21.09;60.27
11223;BME280;5668;52.012;8.724;2023-07-08T03:02:47;100455.19;;;20.97;60.92
11223;BME280;5668;52.012;8.724;2023-07-08T03:05:14;100457.50;;;20.92;60.73
11223;BME280;5668;52.012;8.724;2023-07-08T03:07:41;100458.19;;;20.86;61.17
11223;BME280;5668;52.012;8.724;2023-07-08T03:10:09;100460.97;;;20.84;61.02
11223;BME280;5668;52.012;8.724;2023-07-08T03:12:37;100456.91;;;20.66;61.26
11223;BME280;5668;52.012;8.724;2023-07-08T03:15:05;100456.94;;;20.50;61.75
11223;BME280;5668;52.012;8.724;2023-07-08T03:17:33;100451.00;;;20.39;62.32
11223;BME280;5668;52.012;8.724;2023-07-08T03:20:01;100449.72;;;20.35;62.67
11223;BME280;5668;52.012;8.724;2023-07-08T03:22:31;100449.34;;;20.38;62.71
11223;BME280;5668;52.012;8.724;2023-07-08T03:24:58;100460.25;;;20.43;62.59
11223;BME280;5668;52.012;8.724;2023-07-08T03:27:25;100462.53;;;20.46;62.63
11223;BME280;5668;52.012;8.724;2023-07-08T03:29:53;100462.22;;;20.50;62.40
11223;BME280;5668;52.012;8.724;2023-07-08T03:32:20;100457.94;;;20.48;62.63
11223;BME280;5668;52.012;8.724;2023-07-08T03:34:47;100453.31;;;20.51;62.95
11223;BME280;5668;52.012;8.724;2023-07-08T03:37:15;100457.78;;;20.50;62.72
11223;BME280;5668;52.012;8.724;2023-07-08T03:39:43;100458.09;;;20.47;62.81
11223;BME280;5668;52.012;8.724;2023-07-08T03:42:10;100457.25;;;20.46;62.75
11223;BME280;5668;52.012;8.724;2023-07-08T03:44:37;100457.63;;;20.43;62.75
11223;BME280;5668;52.012;8.724;2023-07-08T03:47:04;100457.63;;;20.43;62.85
11223;BME280;5668;52.012;8.724;2023-07-08T03:49:31;100457.63;;;20.43;62.98
11223;BME280;5668;52.012;8.724;2023-07-08T03:51:59;100452.66;;;20.40;62.58
11223;BME280;5668;52.012;8.724;2023-07-08T03:54:27;100454.63;;;20.38;62.97
11223;BME280;5668;52.012;8.724;2023-07-08T03:56:54;100458.25;;;20.37;63.33
11223;BME280;5668;52.012;8.724;2023-07-08T03:59:21;100455.47;;;20.39;63.41
11223;BME280;5668;52.012;8.724;2023-07-08T04:04:17;100458.94;;;20.39;63.30
11223;BME280;5668;52.012;8.724;2023-07-08T04:06:45;100456.28;;;20.39;63.25
11223;BME280;5668;52.012;8.724;2023-07-08T04:09:12;100452.00;;;20.38;63.49
11223;BME280;5668;52.012;8.724;2023-07-08T04:11:40;100451.00;;;20.39;63.82
11223;BME280;5668;52.012;8.724;2023-07-08T04:14:09;100454.63;;;20.38;63.97
11223;BME280;5668;52.012;8.724;2023-07-08T04:16:44;100452.97;;;20.37;64.21
11223;BME280;5668;52.012;8.724;2023-07-08T04:19:13;100446.91;;;20.37;64.63
11223;BME280;5668;52.012;8.724;2023-07-08T04:21:42;100454.63;;;20.38;64.73
11223;BME280;5668;52.012;8.724;2023-07-08T04:24:10;100452.97;;;20.37;65.42
11223;BME280;5668;52.012;8.724;2023-07-08T04:26:39;100462.25;;;20.33;65.24
11223;BME280;5668;52.012;8.724;2023-07-08T04:29:10;100458.91;;;20.31;64.99
11223;BME280;5668;52.012;8.724;2023-07-08T04:31:38;100462.53;;;20.30;65.03
11223;BME280;5668;52.012;8.724;2023-07-08T04:34:07;100457.25;;;20.30;65.34
11223;BME280;5668;52.012;8.724;2023-07-08T04:36:34;100461.53;;;20.31;65.50
11223;BME280;5668;52.012;8.724;2023-07-08T04:39:02;100459.88;;;20.63;64.17
11223;BME280;5668;52.012;8.724;2023-07-08T04:41:30;100471.97;;;20.49;64.62
11223;BME280;5668;52.012;8.724;2023-07-08T04:43:59;100470.63;;;20.45;65.17
11223;BME280;5668;52.012;8.724;2023-07-08T04:46:32;100473.47;;;20.43;65.34
11223;BME280;5668;52.012;8.724;2023-07-08T04:49:03;100478.75;;;20.43;65.49
11223;BME280;5668;52.012;8.724;2023-07-08T04:51:31;100482.03;;;20.45;65.81
11223;BME280;5668;52.012;8.724;2023-07-08T04:53:59;100470.47;;;20.46;66.09
11223;BME280;5668;52.012;8.724;2023-07-08T04:56:34;100474.75;;;20.47;66.30
11223;BME280;5668;52.012;8.724;2023-07-08T04:59:04;100475.25;;;20.51;66.33
11223;BME280;5668;52.012;8.724;2023-07-08T05:01:32;100472.44;;;20.53;66.42
11223;BME280;5668;52.012;8.724;2023-07-08T05:03:59;100470.63;;;20.53;66.38
11223;BME280;5668;52.012;8.724;2023-07-08T05:06:27;100469.78;;;20.53;66.82
11223;BME280;5668;52.012;8.724;2023-07-08T05:08:54;100471.28;;;20.55;67.03
11223;BME280;5668;52.012;8.724;2023-07-08T05:11:21;100474.44;;;20.51;66.95
11223;BME280;5668;52.012;8.724;2023-07-08T05:13:48;100474.44;;;20.42;67.23
11223;BME280;5668;52.012;8.724;2023-07-08T05:16:17;100466.53;;;20.42;67.57
11223;BME280;5668;52.012;8.724;2023-07-08T05:18:44;100468.50;;;20.48;67.64
11223;BME280;5668;52.012;8.724;2023-07-08T05:21:12;100471.44;;;20.54;67.85
11223;BME280;5668;52.012;8.724;2023-07-08T05:23:40;100465.84;;;20.57;68.59
11223;BME280;5668;52.012;8.724;2023-07-08T05:26:07;100464.84;;;20.58;69.25
11223;BME280;5668;52.012;8.724;2023-07-08T05:28:35;100461.69;;;20.62;69.31
11223;BME280;5668;52.012;8.724;2023-07-08T05:31:02;100465.00;;;20.64;68.80
11223;BME280;5668;52.012;8.724;2023-07-08T05:33:31;100455.25;;;20.65;69.41
11223;BME280;5668;52.012;8.724;2023-07-08T05:35:58;100451.94;;;20.71;70.11
11223;BME280;5668;52.012;8.724;2023-07-08T05:38:26;100459.69;;;20.80;70.68
11223;BME280;5668;52.012;8.724;2023-07-08T05:40:56;100459.00;;;20.86;71.37
11223;BME280;5668;52.012;8.724;2023-07-08T05:43:24;100460.97;;;20.93;72.04
11223;BME280;5668;52.012;8.724;2023-07-08T05:45:52;100466.38;;;20.99;72.43
11223;BME280;5668;52.012;8.724;2023-07-08T05:48:19;100454.97;;;21.07;72.50
11223;BME280;5668;52.012;8.724;2023-07-08T05:50:47;100454.09;;;21.14;72.74
11223;BME280;5668;52.012;8.724;2023-07-08T05:53:17;100463.84;;;21.22;73.14
11223;BME280;5668;52.012;8.724;2023-07-08T05:55:45;100462.97;;;21.30;73.44
11223;BME280;5668;52.012;8.724;2023-07-08T05:58:12;100441.78;;;21.38;73.98
11223;BME280;5668;52.012;8.724;2023-07-08T06:00:41;100447.34;;;21.51;74.20
11223;BME280;5668;52.012;8.724;2023-07-08T06:03:08;100443.81;;;21.58;74.76
11223;BME280;5668;52.012;8.724;2023-07-08T06:05:36;100452.53;;;21.67;74.56
11223;BME280;5668;52.012;8.724;2023-07-08T06:08:06;100443.72;;;21.75;74.98
11223;BME280;5668;52.012;8.724;2023-07-08T06:10:34;100444.31;;;21.85;74.26
11223;BME280;5668;52.012;8.724;2023-07-08T06:13:02;100446.06;;;21.92;73.63
11223;BME280;5668;52.012;8.724;2023-07-08T06:15:29;100441.91;;;21.98;73.00
11223;BME280;5668;52.012;8.724;2023-07-08T06:17:56;100442.69;;;22.07;72.37
11223;BME280;5668;52.012;8.724;2023-07-08T06:20:26;100444.25;;;22.16;71.85
11223;BME280;5668;52.012;8.724;2023-07-08T06:22:54;100444.19;;;22.24;71.57
11223;BME280;5668;52.012;8.724;2023-07-08T06:25:23;100443.47;;;22.30;70.63
11223;BME280;5668;52.012;8.724;2023-07-08T06:27:50;100444.06;;;22.40;70.21
11223;BME280;5668;52.012;8.724;2023-07-08T06:30:17;100440.28;;;22.49;69.14
11223;BME280;5668;52.012;8.724;2023-07-08T06:32:45;100445.16;;;22.60;68.63
11223;BME280;5668;52.012;8.724;2023-07-08T06:35:12;100436.13;;;22.69;68.14
11223;BME280;5668;52.012;8.724;2023-07-08T06:37:39;100432.38;;;22.78;67.15
11223;BME280;5668;52.012;8.724;2023-07-08T06:40:07;100436.97;;;22.85;65.93
11223;BME280;5668;52.012;8.724;2023-07-08T06:42:36;100441.53;;;22.91;65.84
11223;BME280;5668;52.012;8.724;2023-07-08T06:45:04;100441.81;;;22.96;65.48
11223;BME280;5668;52.012;8.724;2023-07-08T06:47:32;100439.22;;;23.02;65.00
11223;BME280;5668;52.012;8.724;2023-07-08T06:49:59;100447.91;;;23.11;64.20
11223;BME280;5668;52.012;8.724;2023-07-08T06:52:26;100445.16;;;23.19;64.27
11223;BME280;5668;52.012;8.724;2023-07-08T06:54:53;100447.25;;;23.24;64.13
11223;BME280;5668;52.012;8.724;2023-07-08T06:57:20;100447.34;;;23.30;64.70
11223;BME280;5668;52.012;8.724;2023-07-08T06:59:49;100443.00;;;23.44;64.32
11223;BME280;5668;52.012;8.724;2023-07-08T07:02:16;100444.19;;;23.56;63.69
11223;BME280;5668;52.012;8.724;2023-07-08T07:04:43;100439.75;;;23.63;61.07
11223;BME280;5668;52.012;8.724;2023-07-08T07:07:11;100449.44;;;23.71;58.45
11223;BME280;5668;52.012;8.724;2023-07-08T07:09:38;100447.94;;;23.83;57.12
11223;BME280;5668;52.012;8.724;2023-07-08T07:12:06;100443.94;;;23.93;55.91
11223;BME280;5668;52.012;8.724;2023-07-08T07:14:34;100446.72;;;24.07;54.38
11223;BME280;5668;52.012;8.724;2023-07-08T07:17:03;100447.84;;;24.19;53.94
11223;BME280;5668;52.012;8.724;2023-07-08T07:19:30;100442.22;;;24.28;53.44
11223;BME280;5668;52.012;8.724;2023-07-08T07:21:58;100447.66;;;24.42;52.19
11223;BME280;5668;52.012;8.724;2023-07-08T07:24:25;100448.94;;;24.52;51.72
11223;BME280;5668;52.012;8.724;2023-07-08T07:26:52;100445.75;;;24.63;50.66
11223;BME280;5668;52.012;8.724;2023-07-08T07:29:22;100451.31;;;24.75;49.51
11223;BME280;5668;52.012;8.724;2023-07-08T07:31:50;100443.81;;;24.85;48.85
11223;BME280;5668;52.012;8.724;2023-07-08T07:34:19;100451.66;;;24.93;48.75
11223;BME280;5668;52.012;8.724;2023-07-08T07:36:45;100451.72;;;25.06;49.33
11223;BME280;5668;52.012;8.724;2023-07-08T07:39:12;100450.94;;;25.19;48.72
11223;BME280;5668;52.012;8.724;2023-07-08T07:41:40;100455.50;;;25.25;48.19
11223;BME280;5668;52.012;8.724;2023-07-08T07:44:07;100460.44;;;25.35;48.02
11223;BME280;5668;52.012;8.724;2023-07-08T07:46:34;100451.69;;;25.48;47.80
11223;BME280;5668;52.012;8.724;2023-07-08T07:49:02;100448.63;;;25.57;47.35
11223;BME280;5668;52.012;8.724;2023-07-08T07:51:30;100450.75;;;25.68;47.25
11223;BME280;5668;52.012;8.724;2023-07-08T07:53:57;100443.97;;;25.79;47.42
11223;BME280;5668;52.012;8.724;2023-07-08T07:56:24;100439.91;;;25.90;47.12
11223;BME280;5668;52.012;8.724;2023-07-08T07:58:52;100446.06;;;26.03;46.14
11223;BME280;5668;52.012;8.724;2023-07-08T08:01:19;100447.31;;;26.14;45.76
11223;BME280;5668;52.012;8.724;2023-07-08T08:03:48;100451.19;;;26.18;44.97
11223;BME280;5668;52.012;8.724;2023-07-08T08:06:16;100449.59;;;26.30;44.69
11223;BME280;5668;52.012;8.724;2023-07-08T08:08:46;100449.78;;;26.42;43.96
11223;BME280;5668;52.012;8.724;2023-07-08T08:11:14;100439.72;;;26.50;43.89
11223;BME280;5668;52.012;8.724;2023-07-08T08:13:41;100443.81;;;26.59;43.86
11223;BME280;5668;52.012;8.724;2023-07-08T08:16:08;100450.75;;;26.67;43.78
11223;BME280;5668;52.012;8.724;2023-07-08T08:18:35;100441.91;;;26.80;44.47
11223;BME280;5668;52.012;8.724;2023-07-08T08:21:03;100446.19;;;26.87;44.49
11223;BME280;5668;52.012;8.724;2023-07-08T08:23:30;100446.38;;;26.99;43.77
11223;BME280;5668;52.012;8.724;2023-07-08T08:25:58;100444.28;;;27.08;43.32
11223;BME280;5668;52.012;8.724;2023-07-08T08:28:26;100451.47;;;27.14;43.45
11223;BME280;5668;52.012;8.724;2023-07-08T08:30:53;100459.63;;;27.25;43.22
11223;BME280;5668;52.012;8.724;2023-07-08T08:33:20;100451.38;;;27.33;42.72
11223;BME280;5668;52.012;8.724;2023-07-08T08:35:48;100450.31;;;27.41;42.42
11223;BME280;5668;52.012;8.724;2023-07-08T08:38:15;100455.41;;;27.49;42.21
11223;BME280;5668;52.012;8.724;2023-07-08T08:40:43;100456.44;;;27.55;42.02
11223;BME280;5668;52.012;8.724;2023-07-08T08:43:16;100456.59;;;27.60;42.96
11223;BME280;5668;52.012;8.724;2023-07-08T08:45:49;100454.50;;;27.68;43.27
11223;BME280;5668;52.012;8.724;2023-07-08T08:48:20;100456.09;;;27.76;42.70
11223;BME280;5668;52.012;8.724;2023-07-08T08:50:51;100457.47;;;27.85;41.89
11223;BME280;5668;52.012;8.724;2023-07-08T08:53:20;100451.66;;;27.95;42.23
11223;BME280;5668;52.012;8.724;2023-07-08T08:55:52;100454.06;;;28.03;42.16
11223;BME280;5668;52.012;8.724;2023-07-08T08:58:30;100456.22;;;28.12;41.87
11223;BME280;5668;52.012;8.724;2023-07-08T09:01:02;100458.22;;;28.24;41.53
11223;BME280;5668;52.012;8.724;2023-07-08T09:03:36;100462.28;;;28.33;41.51
11223;BME280;5668;52.012;8.724;2023-07-08T09:06:11;100460.16;;;28.41;41.97
11223;BME280;5668;52.012;8.724;2023-07-08T09:08:39;100454.25;;;28.51;41.88
11223;BME280;5668;52.012;8.724;2023-07-08T09:11:27;100455.75;;;28.65;41.71
11223;BME280;5668;52.012;8.724;2023-07-08T09:13:58;100458.94;;;28.80;40.49
11223;BME280;5668;52.012;8.724;2023-07-08T09:16:36;100458.19;;;28.92;41.02
11223;BME280;5668;52.012;8.724;2023-07-08T09:19:09;100460.59;;;29.00;40.68
11223;BME280;5668;52.012;8.724;2023-07-08T09:21:44;100444.66;;;29.05;40.31
11223;BME280;5668;52.012;8.724;2023-07-08T09:24:18;100449.09;;;29.11;40.63
11223;BME280;5668;52.012;8.724;2023-07-08T09:26:47;100453.59;;;29.17;40.37
11223;BME280;5668;52.012;8.724;2023-07-08T09:29:17;100454.31;;;29.24;41.19
11223;BME280;5668;52.012;8.724;2023-07-08T09:31:44;100449.69;;;29.31;41.65
11223;BME280;5668;52.012;8.724;2023-07-08T09:34:14;100443.88;;;29.34;40.99
11223;BME280;5668;52.012;8.724;2023-07-08T09:36:44;100447.31;;;29.41;40.76
11223;BME280;5668;52.012;8.724;2023-07-08T09:39:13;100450.69;;;29.48;41.59
11223;BME280;5668;52.012;8.724;2023-07-08T09:41:42;100448.53;;;29.57;41.31
11223;BME280;5668;52.012;8.724;2023-07-08T09:44:21;100437.25;;;29.67;41.39
11223;BME280;5668;52.012;8.724;2023-07-08T09:46:52;100432.63;;;29.74;40.78
11223;BME280;5668;52.012;8.724;2023-07-08T09:49:24;100433.78;;;29.78;39.88
11223;BME280;5668;52.012;8.724;2023-07-08T09:51:54;100437.16;;;29.85;39.33
11223;BME280;5668;52.012;8.724;2023-07-08T09:54:23;100443.06;;;29.93;39.94
11223;BME280;5668;52.012;8.724;2023-07-08T09:56:58;100437.00;;;29.98;39.99
11223;BME280;5668;52.012;8.724;2023-07-08T09:59:31;100444.56;;;30.01;39.64
11223;BME280;5668;52.012;8.724;2023-07-08T10:02:03;100435.03;;;30.05;39.73
11223;BME280;5668;52.012;8.724;2023-07-08T10:04:40;100439.69;;;30.10;39.54
11223;BME280;5668;52.012;8.724;2023-07-08T10:07:07;100445.19;;;30.15;39.67
11223;BME280;5668;52.012;8.724;2023-07-08T10:09:43;100444.81;;;30.23;40.63
11223;BME280;5668;52.012;8.724;2023-07-08T10:12:12;100445.78;;;30.28;40.60
11223;BME280;5668;52.012;8.724;2023-07-08T10:14:47;100444.63;;;30.36;40.42
11223;BME280;5668;52.012;8.724;2023-07-08T10:17:17;100452.78;;;30.41;39.77
11223;BME280;5668;52.012;8.724;2023-07-08T10:19:46;100437.78;;;30.52;39.02
11223;BME280;5668;52.012;8.724;2023-07-08T10:22:27;100440.09;;;30.60;38.74
11223;BME280;5668;52.012;8.724;2023-07-08T10:25:16;100428.97;;;30.68;38.05
11223;BME280;5668;52.012;8.724;2023-07-08T10:27:52;100436.66;;;30.76;36.68
11223;BME280;5668;52.012;8.724;2023-07-08T10:30:26;100437.69;;;30.87;37.07
11223;BME280;5668;52.012;8.724;2023-07-08T10:33:13;100437.09;;;30.96;37.28
11223;BME280;5668;52.012;8.724;2023-07-08T10:35:59;100439.88;;;31.01;36.27
11223;BME280;5668;52.012;8.724;2023-07-08T10:38:42;100438.72;;;31.09;36.08
11223;BME280;5668;52.012;8.724;2023-07-08T10:41:18;100429.47;;;31.17;36.01
11223;BME280;5668;52.012;8.724;2023-07-08T10:43:59;100434.13;;;31.21;35.25
11223;BME280;5668;52.012;8.724;2023-07-08T10:46:38;100435.13;;;31.32;34.88
11223;BME280;5668;52.012;8.724;2023-07-08T10:49:29;100436.94;;;31.43;34.52
11223;BME280;5668;52.012;8.724;2023-07-08T10:52:07;100432.00;;;31.51;34.08
11223;BME280;5668;52.012;8.724;2023-07-08T10:54:59;100437.72;;;31.55;32.64
11223;BME280;5668;52.012;8.724;2023-07-08T10:57:51;100423.69;;;31.65;32.35
11223;BME280;5668;52.012;8.724;2023-07-08T11:00:33;100421.72;;;31.77;31.64
11223;BME280;5668;52.012;8.724;2023-07-08T11:03:20;100426.19;;;31.88;31.72
11223;BME280;5668;52.012;8.724;2023-07-08T11:05:58;100428.66;;;31.89;30.97
11223;BME280;5668;52.012;8.724;2023-07-08T11:08:29;100420.41;;;31.96;31.50
11223;BME280;5668;52.012;8.724;2023-07-08T11:11:03;100429.72;;;32.05;30.87
11223;BME280;5668;52.012;8.724;2023-07-08T11:13:42;100425.34;;;32.16;30.70
11223;BME280;5668;52.012;8.724;2023-07-08T11:16:14;100423.06;;;32.24;31.20
11223;BME280;5668;52.012;8.724;2023-07-08T11:18:54;100420.09;;;32.26;29.47
11223;BME280;5668;52.012;8.724;2023-07-08T11:21:26;100412.13;;;32.31;28.99
11223;BME280;5668;52.012;8.724;2023-07-08T11:23:58;100417.06;;;32.39;29.66
11223;BME280;5668;52.012;8.724;2023-07-08T11:26:30;100410.94;;;32.44;28.40
11223;BME280;5668;52.012;8.724;2023-07-08T11:29:00;100410.28;;;32.53;28.21
11223;BME280;5668;52.012;8.724;2023-07-08T11:31:31;100408.69;;;32.57;28.71
11223;BME280;5668;52.012;8.724;2023-07-08T11:34:02;100410.13;;;32.65;29.46
11223;BME280;5668;52.012;8.724;2023-07-08T11:36:31;100402.19;;;32.70;28.77
11223;BME280;5668;52.012;8.724;2023-07-08T11:39:00;100411.94;;;32.76;28.85
11223;BME280;5668;52.012;8.724;2023-07-08T11:41:31;100409.53;;;32.80;28.96
11223;BME280;5668;52.012;8.724;2023-07-08T11:43:59;100406.41;;;32.88;28.57
11223;BME280;5668;52.012;8.724;2023-07-08T11:46:31;100405.97;;;32.96;28.58
11223;BME280;5668;52.012;8.724;2023-07-08T11:49:04;100395.00;;;33.02;28.99
11223;BME280;5668;52.012;8.724;2023-07-08T11:51:34;100398.81;;;33.07;28.98
11223;BME280;5668;52.012;8.724;2023-07-08T11:54:11;100399.66;;;33.07;27.34
11223;BME280;5668;52.012;8.724;2023-07-08T11:56:49;100402.38;;;33.12;27.97
11223;BME280;5668;52.012;8.724;2023-07-08T11:59:19;100394.88;;;33.14;27.42
11223;BME280;5668;52.012;8.724;2023-07-08T12:01:52;100397.59;;;33.19;26.33
11223;BME280;5668;52.012;8.724;2023-07-08T12:04:30;100394.75;;;33.26;27.29
11223;BME280;5668;52.012;8.724;2023-07-08T12:07:10;100393.19;;;33.30;27.48
11223;BME280;5668;52.012;8.724;2023-07-08T12:09:44;100390.19;;;33.31;27.62
11223;BME280;5668;52.012;8.724;2023-07-08T12:12:24;100384.63;;;33.38;27.86
11223;BME280;5668;52.012;8.724;2023-07-08T12:14:58;100383.34;;;33.46;27.75
11223;BME280;5668;52.012;8.724;2023-07-08T12:17:27;100373.72;;;33.55;28.74
11223;BME280;5668;52.012;8.724;2023-07-08T12:19:58;100381.28;;;33.58;27.79
11223;BME280;5668;52.012;8.724;2023-07-08T12:22:29;100374.84;;;33.59;27.12
11223;BME280;5668;52.012;8.724;2023-07-08T12:24:56;100378.59;;;33.58;26.06
11223;BME280;5668;52.012;8.724;2023-07-08T12:27:31;100378.63;;;33.63;26.01
11223;BME280;5668;52.012;8.724;2023-07-08T12:29:58;100375.44;;;33.66;26.79
11223;BME280;5668;52.012;8.724;2023-07-08T12:32:26;100371.38;;;33.68;26.93
11223;BME280;5668;52.012;8.724;2023-07-08T12:34:56;100370.66;;;33.73;26.47
11223;BME280;5668;52.012;8.724;2023-07-08T12:37:24;100369.88;;;33.77;26.55
11223;BME280;5668;52.012;8.724;2023-07-08T12:39:55;100367.50;;;33.81;26.65
11223;BME280;5668;52.012;8.724;2023-07-08T12:42:25;100368.59;;;33.85;26.04
11223;BME280;5668;52.012;8.724;2023-07-08T12:44:53;100368.06;;;33.88;26.75
11223;BME280;5668;52.012;8.724;2023-07-08T12:47:20;100368.91;;;33.89;26.78
11223;BME280;5668;52.012;8.724;2023-07-08T12:49:48;100366.47;;;33.92;26.00
11223;BME280;5668;52.012;8.724;2023-07-08T12:52:22;100364.34;;;33.94;27.10
11223;BME280;5668;52.012;8.724;2023-07-08T12:54:50;100361.38;;;33.91;25.51
11223;BME280;5668;52.012;8.724;2023-07-08T12:57:18;100364.34;;;33.94;26.75
11223;BME280;5668;52.012;8.724;2023-07-08T12:59:45;100371.13;;;33.97;26.55
11223;BME280;5668;52.012;8.724;2023-07-08T13:02:17;100365.16;;;33.95;26.13
11223;BME280;5668;52.012;8.724;2023-07-08T13:04:45;100370.81;;;33.93;26.50
11223;BME280;5668;52.012;8.724;2023-07-08T13:07:25;100366.53;;;33.97;26.00
11223;BME280;5668;52.012;8.724;2023-07-08T13:09:56;100350.34;;;33.97;26.16
11223;BME280;5668;52.012;8.724;2023-07-08T13:12:24;100355.44;;;33.99;26.72
11223;BME280;5668;52.012;8.724;2023-07-08T13:14:52;100358.16;;;33.99;26.32
11223;BME280;5668;52.012;8.724;2023-07-08T13:17:21;100353.56;;;33.99;27.22
11223;BME280;5668;52.012;8.724;2023-07-08T13:19:49;100351.94;;;33.98;26.06